sensor_id;sensor_type;location;lat;lon;timestamp;P1;durP1;ratioP1;P2;durP2;ratioP2
6131;SDS011;3097;42.692;23.278;2023-10-13T00:02:07;24.07;;;12.77;;
6131;SDS011;3097;42.692;23.278;2023-10-13T00:04:33;25.60;;;13.33;;
6131;SDS011;3097;42.692;23.278;2023-10-13T00:07:02;25.43;;;12.80;;
6131;SDS011;3097;42.692;23.278;2023-10-13T00:09:29;25.07;;;12.53;;
6131;SDS011;3097;42.692;23.278;2023-10-13T00:12:00;23.90;;;12.40;;
6131;SDS011;3097;42.692;23.278;2023-10-13T00:14:26;20.80;;;12.67;;
6131;SDS011;3097;42.692;23.278;2023-10-13T00:17:03;20.17;;;11.63;;
6131;SDS011;3097;42.692;23.278;2023-10-13T00:19:31;26.37;;;13.17;;
6131;SDS011;3097;42.692;23.278;2023-10-13T00:22:08;25.67;;;12.80;;
6131;SDS011;3097;42.692;23.278;2023-10-13T00:24:35;24.30;;;13.43;;
6131;SDS011;3097;42.692;23.278;2023-10-13T00:27:20;18.90;;;13.20;;
6131;SDS011;3097;42.692;23.278;2023-10-13T00:29:56;21.73;;;13.47;;
6131;SDS011;3097;42.692;23.278;2023-10-13T00:32:42;22.17;;;12.67;;
6131;SDS011;3097;42.692;23.278;2023-10-13T00:35:11;20.80;;;12.80;;
6131;SDS011;3097;42.692;23.278;2023-10-13T00:37:57;28.17;;;13.87;;
6131;SDS011;3097;42.692;23.278;2023-10-13T00:40:29;37.07;;;13.73;;
6131;SDS011;3097;42.692;23.278;2023-10-13T00:42:56;31.70;;;13.67;;
6131;SDS011;3097;42.692;23.278;2023-10-13T00:45:42;28.00;;;13.07;;
6131;SDS011;3097;42.692;23.278;2023-10-13T00:48:10;26.67;;;12.83;;
6131;SDS011;3097;42.692;23.278;2023-10-13T00:50:37;20.40;;;11.93;;
6131;SDS011;3097;42.692;23.278;2023-10-13T00:53:03;21.33;;;11.47;;
6131;SDS011;3097;42.692;23.278;2023-10-13T00:55:29;26.50;;;12.50;;
6131;SDS011;3097;42.692;23.278;2023-10-13T00:57:59;18.83;;;11.80;;
6131;SDS011;3097;42.692;23.278;2023-10-13T01:00:31;26.00;;;11.80;;
6131;SDS011;3097;42.692;23.278;2023-10-13T01:02:56;19.53;;;12.20;;
6131;SDS011;3097;42.692;23.278;2023-10-13T01:05:25;22.10;;;11.23;;
6131;SDS011;3097;42.692;23.278;2023-10-13T01:07:51;18.30;;;11.37;;
6131;SDS011;3097;42.692;23.278;2023-10-13T01:10:22;22.00;;;11.43;;
6131;SDS011;3097;42.692;23.278;2023-10-13T01:12:57;16.43;;;10.97;;
6131;SDS011;3097;42.692;23.278;2023-10-13T01:15:27;18.27;;;11.73;;
6131;SDS011;3097;42.692;23.278;2023-10-13T01:18:08;21.43;;;11.53;;
6131;SDS011;3097;42.692;23.278;2023-10-13T01:20:43;21.43;;;11.23;;
6131;SDS011;3097;42.692;23.278;2023-10-13T01:23:11;19.33;;;10.53;;
6131;SDS011;3097;42.692;23.278;2023-10-13T01:25:43;22.60;;;11.87;;
6131;SDS011;3097;42.692;23.278;2023-10-13T01:28:09;24.93;;;12.00;;
6131;SDS011;3097;42.692;23.278;2023-10-13T01:30:35;19.83;;;11.43;;
6131;SDS011;3097;42.692;23.278;2023-10-13T01:33:03;23.47;;;11.97;;
6131;SDS011;3097;42.692;23.278;2023-10-13T01:35:29;16.60;;;10.60;;
6131;SDS011;3097;42.692;23.278;2023-10-13T01:38:02;17.73;;;10.87;;
6131;SDS011;3097;42.692;23.278;2023-10-13T01:40:27;15.03;;;10.97;;
6131;SDS011;3097;42.692;23.278;2023-10-13T01:42:58;15.50;;;10.77;;
6131;SDS011;3097;42.692;23.278;2023-10-13T01:45:24;14.00;;;9.90;;
6131;SDS011;3097;42.692;23.278;2023-10-13T01:47:54;17.07;;;11.10;;
6131;SDS011;3097;42.692;23.278;2023-10-13T01:50:20;18.53;;;9.73;;
6131;SDS011;3097;42.692;23.278;2023-10-13T01:52:55;16.83;;;10.70;;
6131;SDS011;3097;42.692;23.278;2023-10-13T01:55:43;17.03;;;10.77;;
6131;SDS011;3097;42.692;23.278;2023-10-13T01:58:12;17.60;;;10.37;;
6131;SDS011;3097;42.692;23.278;2023-10-13T02:00:42;15.77;;;10.40;;
6131;SDS011;3097;42.692;23.278;2023-10-13T02:03:09;16.93;;;9.93;;
6131;SDS011;3097;42.692;23.278;2023-10-13T02:05:45;15.63;;;10.40;;
6131;SDS011;3097;42.692;23.278;2023-10-13T02:10:47;14.47;;;9.90;;
6131;SDS011;3097;42.692;23.278;2023-10-13T02:13:14;16.50;;;10.27;;
6131;SDS011;3097;42.692;23.278;2023-10-13T02:15:42;17.80;;;9.57;;
6131;SDS011;3097;42.692;23.278;2023-10-13T02:18:09;16.67;;;11.10;;
6131;SDS011;3097;42.692;23.278;2023-10-13T02:20:36;21.17;;;11.17;;
6131;SDS011;3097;42.692;23.278;2023-10-13T02:23:11;14.27;;;9.70;;
6131;SDS011;3097;42.692;23.278;2023-10-13T02:25:37;15.33;;;10.20;;
6131;SDS011;3097;42.692;23.278;2023-10-13T02:28:11;17.17;;;10.93;;
6131;SDS011;3097;42.692;23.278;2023-10-13T02:30:40;18.30;;;11.27;;
6131;SDS011;3097;42.692;23.278;2023-10-13T02:33:12;14.67;;;10.30;;
6131;SDS011;3097;42.692;23.278;2023-10-13T02:35:39;18.67;;;11.13;;
6131;SDS011;3097;42.692;23.278;2023-10-13T02:38:15;31.20;;;16.67;;
6131;SDS011;3097;42.692;23.278;2023-10-13T02:40:50;28.47;;;16.70;;
6131;SDS011;3097;42.692;23.278;2023-10-13T02:43:16;22.87;;;13.00;;
6131;SDS011;3097;42.692;23.278;2023-10-13T02:45:41;20.17;;;12.83;;
6131;SDS011;3097;42.692;23.278;2023-10-13T02:48:08;20.23;;;12.93;;
6131;SDS011;3097;42.692;23.278;2023-10-13T02:50:56;17.10;;;11.33;;
6131;SDS011;3097;42.692;23.278;2023-10-13T02:53:26;21.13;;;12.10;;
6131;SDS011;3097;42.692;23.278;2023-10-13T02:55:54;22.60;;;11.77;;
6131;SDS011;3097;42.692;23.278;2023-10-13T02:58:31;20.20;;;12.03;;
6131;SDS011;3097;42.692;23.278;2023-10-13T03:01:07;14.87;;;11.77;;
6131;SDS011;3097;42.692;23.278;2023-10-13T03:06:19;24.30;;;13.33;;
6131;SDS011;3097;42.692;23.278;2023-10-13T03:08:47;20.70;;;12.77;;
6131;SDS011;3097;42.692;23.278;2023-10-13T03:11:13;23.13;;;13.30;;
6131;SDS011;3097;42.692;23.278;2023-10-13T03:13:39;23.50;;;12.90;;
6131;SDS011;3097;42.692;23.278;2023-10-13T03:16:13;18.80;;;12.00;;
6131;SDS011;3097;42.692;23.278;2023-10-13T03:18:44;18.17;;;11.93;;
6131;SDS011;3097;42.692;23.278;2023-10-13T03:21:19;21.23;;;12.13;;
6131;SDS011;3097;42.692;23.278;2023-10-13T03:23:54;17.37;;;11.37;;
6131;SDS011;3097;42.692;23.278;2023-10-13T03:26:31;22.03;;;12.13;;
6131;SDS011;3097;42.692;23.278;2023-10-13T03:29:01;25.63;;;12.10;;
6131;SDS011;3097;42.692;23.278;2023-10-13T03:31:33;20.80;;;12.13;;
6131;SDS011;3097;42.692;23.278;2023-10-13T03:34:05;20.97;;;12.03;;
6131;SDS011;3097;42.692;23.278;2023-10-13T03:36:35;21.27;;;12.20;;
6131;SDS011;3097;42.692;23.278;2023-10-13T03:39:19;21.50;;;12.73;;
6131;SDS011;3097;42.692;23.278;2023-10-13T03:41:48;23.10;;;12.90;;
6131;SDS011;3097;42.692;23.278;2023-10-13T03:44:18;32.33;;;13.43;;
6131;SDS011;3097;42.692;23.278;2023-10-13T03:46:44;23.80;;;12.87;;
6131;SDS011;3097;42.692;23.278;2023-10-13T03:49:14;22.60;;;12.77;;
6131;SDS011;3097;42.692;23.278;2023-10-13T03:51:47;21.47;;;12.10;;
6131;SDS011;3097;42.692;23.278;2023-10-13T03:54:14;19.27;;;11.97;;
6131;SDS011;3097;42.692;23.278;2023-10-13T03:56:42;17.07;;;11.60;;
6131;SDS011;3097;42.692;23.278;2023-10-13T03:59:17;17.07;;;11.57;;
6131;SDS011;3097;42.692;23.278;2023-10-13T04:01:43;14.97;;;11.57;;
6131;SDS011;3097;42.692;23.278;2023-10-13T04:04:23;21.53;;;12.67;;
6131;SDS011;3097;42.692;23.278;2023-10-13T04:07:08;23.30;;;13.90;;
6131;SDS011;3097;42.692;23.278;2023-10-13T04:09:35;20.97;;;13.23;;
6131;SDS011;3097;42.692;23.278;2023-10-13T04:12:13;21.33;;;12.47;;
6131;SDS011;3097;42.692;23.278;2023-10-13T04:14:42;24.90;;;13.40;;
6131;SDS011;3097;42.692;23.278;2023-10-13T04:17:32;26.80;;;14.10;;
6131;SDS011;3097;42.692;23.278;2023-10-13T04:20:09;26.23;;;13.87;;
6131;SDS011;3097;42.692;23.278;2023-10-13T04:25:13;24.47;;;14.07;;
6131;SDS011;3097;42.692;23.278;2023-10-13T04:28:06;29.30;;;14.63;;
6131;SDS011;3097;42.692;23.278;2023-10-13T04:30:39;24.77;;;14.53;;
6131;SDS011;3097;42.692;23.278;2023-10-13T04:33:27;29.13;;;14.53;;
6131;SDS011;3097;42.692;23.278;2023-10-13T04:36:18;30.10;;;13.77;;
6131;SDS011;3097;42.692;23.278;2023-10-13T04:38:45;26.47;;;13.33;;
6131;SDS011;3097;42.692;23.278;2023-10-13T04:41:33;23.30;;;13.47;;
6131;SDS011;3097;42.692;23.278;2023-10-13T04:44:08;33.90;;;14.37;;
6131;SDS011;3097;42.692;23.278;2023-10-13T04:46:54;30.23;;;13.43;;
6131;SDS011;3097;42.692;23.278;2023-10-13T04:49:33;46.17;;;14.40;;
6131;SDS011;3097;42.692;23.278;2023-10-13T04:52:00;37.57;;;15.13;;
6131;SDS011;3097;42.692;23.278;2023-10-13T04:54:33;28.73;;;14.60;;
6131;SDS011;3097;42.692;23.278;2023-10-13T04:57:16;25.50;;;14.33;;
6131;SDS011;3097;42.692;23.278;2023-10-13T04:59:49;37.23;;;15.57;;
6131;SDS011;3097;42.692;23.278;2023-10-13T05:02:34;34.47;;;15.03;;
6131;SDS011;3097;42.692;23.278;2023-10-13T05:07:34;39.63;;;15.70;;
6131;SDS011;3097;42.692;23.278;2023-10-13T05:10:17;31.10;;;14.30;;
6131;SDS011;3097;42.692;23.278;2023-10-13T05:13:02;25.20;;;14.43;;
6131;SDS011;3097;42.692;23.278;2023-10-13T05:15:50;34.03;;;16.47;;
6131;SDS011;3097;42.692;23.278;2023-10-13T05:18:35;37.50;;;15.57;;
6131;SDS011;3097;42.692;23.278;2023-10-13T05:21:19;35.77;;;15.83;;
6131;SDS011;3097;42.692;23.278;2023-10-13T05:24:04;36.60;;;15.13;;
6131;SDS011;3097;42.692;23.278;2023-10-13T05:26:49;45.67;;;16.80;;
6131;SDS011;3097;42.692;23.278;2023-10-13T05:29:33;37.53;;;16.67;;
6131;SDS011;3097;42.692;23.278;2023-10-13T05:32:17;38.73;;;16.70;;
6131;SDS011;3097;42.692;23.278;2023-10-13T05:35:01;39.17;;;16.63;;
6131;SDS011;3097;42.692;23.278;2023-10-13T05:37:45;35.70;;;16.43;;
6131;SDS011;3097;42.692;23.278;2023-10-13T05:40:29;37.10;;;16.90;;
6131;SDS011;3097;42.692;23.278;2023-10-13T05:43:13;34.80;;;17.33;;
6131;SDS011;3097;42.692;23.278;2023-10-13T05:46:01;37.20;;;18.50;;
6131;SDS011;3097;42.692;23.278;2023-10-13T05:48:46;33.80;;;17.53;;
6131;SDS011;3097;42.692;23.278;2023-10-13T05:51:27;38.30;;;17.53;;
6131;SDS011;3097;42.692;23.278;2023-10-13T05:54:05;26.97;;;17.23;;
6131;SDS011;3097;42.692;23.278;2023-10-13T05:59:27;32.07;;;17.07;;
6131;SDS011;3097;42.692;23.278;2023-10-13T06:02:13;30.67;;;18.17;;
6131;SDS011;3097;42.692;23.278;2023-10-13T06:05:05;26.27;;;15.53;;
6131;SDS011;3097;42.692;23.278;2023-10-13T06:07:51;27.43;;;15.73;;
6131;SDS011;3097;42.692;23.278;2023-10-13T06:10:37;31.10;;;16.87;;
6131;SDS011;3097;42.692;23.278;2023-10-13T06:13:22;28.93;;;16.43;;
6131;SDS011;3097;42.692;23.278;2023-10-13T06:16:06;33.60;;;16.83;;
6131;SDS011;3097;42.692;23.278;2023-10-13T06:18:55;31.30;;;17.30;;
6131;SDS011;3097;42.692;23.278;2023-10-13T06:21:39;26.13;;;16.80;;
6131;SDS011;3097;42.692;23.278;2023-10-13T06:24:24;27.90;;;16.63;;
6131;SDS011;3097;42.692;23.278;2023-10-13T06:27:07;21.10;;;13.33;;
6131;SDS011;3097;42.692;23.278;2023-10-13T06:29:51;17.30;;;12.00;;
6131;SDS011;3097;42.692;23.278;2023-10-13T06:32:19;22.47;;;13.13;;
6131;SDS011;3097;42.692;23.278;2023-10-13T06:34:45;20.00;;;11.80;;
6131;SDS011;3097;42.692;23.278;2023-10-13T06:37:13;17.33;;;12.33;;
6131;SDS011;3097;42.692;23.278;2023-10-13T06:39:50;18.40;;;12.27;;
6131;SDS011;3097;42.692;23.278;2023-10-13T06:42:16;20.20;;;12.30;;
6131;SDS011;3097;42.692;23.278;2023-10-13T06:44:42;17.90;;;12.60;;
6131;SDS011;3097;42.692;23.278;2023-10-13T06:47:11;16.20;;;11.40;;
6131;SDS011;3097;42.692;23.278;2023-10-13T06:49:37;17.00;;;12.13;;
6131;SDS011;3097;42.692;23.278;2023-10-13T06:52:04;29.47;;;14.03;;
6131;SDS011;3097;42.692;23.278;2023-10-13T06:54:32;27.37;;;15.40;;
6131;SDS011;3097;42.692;23.278;2023-10-13T06:57:02;19.20;;;12.77;;
6131;SDS011;3097;42.692;23.278;2023-10-13T06:59:31;20.60;;;13.27;;
6131;SDS011;3097;42.692;23.278;2023-10-13T07:02:00;22.40;;;13.67;;
6131;SDS011;3097;42.692;23.278;2023-10-13T07:04:34;20.73;;;13.63;;
6131;SDS011;3097;42.692;23.278;2023-10-13T07:07:04;21.20;;;14.20;;
6131;SDS011;3097;42.692;23.278;2023-10-13T07:09:36;18.73;;;13.70;;
6131;SDS011;3097;42.692;23.278;2023-10-13T07:12:04;18.00;;;12.93;;
6131;SDS011;3097;42.692;23.278;2023-10-13T07:14:50;17.70;;;12.93;;
6131;SDS011;3097;42.692;23.278;2023-10-13T07:17:20;23.90;;;14.67;;
6131;SDS011;3097;42.692;23.278;2023-10-13T07:19:49;27.57;;;13.93;;
6131;SDS011;3097;42.692;23.278;2023-10-13T07:22:20;22.20;;;14.67;;
6131;SDS011;3097;42.692;23.278;2023-10-13T07:24:46;19.80;;;14.43;;
6131;SDS011;3097;42.692;23.278;2023-10-13T07:27:19;16.70;;;14.07;;
6131;SDS011;3097;42.692;23.278;2023-10-13T07:29:49;21.23;;;14.13;;
6131;SDS011;3097;42.692;23.278;2023-10-13T07:32:24;23.43;;;16.40;;
6131;SDS011;3097;42.692;23.278;2023-10-13T07:34:54;26.63;;;14.77;;
6131;SDS011;3097;42.692;23.278;2023-10-13T07:37:23;26.97;;;15.80;;
6131;SDS011;3097;42.692;23.278;2023-10-13T07:39:54;21.37;;;14.97;;
6131;SDS011;3097;42.692;23.278;2023-10-13T07:42:26;20.53;;;15.13;;
6131;SDS011;3097;42.692;23.278;2023-10-13T07:45:04;26.77;;;16.10;;
6131;SDS011;3097;42.692;23.278;2023-10-13T07:47:31;23.47;;;16.00;;
6131;SDS011;3097;42.692;23.278;2023-10-13T07:49:58;27.23;;;14.10;;
6131;SDS011;3097;42.692;23.278;2023-10-13T07:52:23;27.17;;;14.90;;
6131;SDS011;3097;42.692;23.278;2023-10-13T07:55:01;26.50;;;15.40;;
6131;SDS011;3097;42.692;23.278;2023-10-13T07:57:46;23.20;;;14.90;;
6131;SDS011;3097;42.692;23.278;2023-10-13T08:00:22;27.57;;;16.30;;
6131;SDS011;3097;42.692;23.278;2023-10-13T08:03:12;21.90;;;14.67;;
6131;SDS011;3097;42.692;23.278;2023-10-13T08:05:41;23.37;;;14.73;;
6131;SDS011;3097;42.692;23.278;2023-10-13T08:08:26;33.47;;;19.90;;
6131;SDS011;3097;42.692;23.278;2023-10-13T08:11:00;28.07;;;16.40;;
6131;SDS011;3097;42.692;23.278;2023-10-13T08:13:34;22.20;;;16.03;;
6131;SDS011;3097;42.692;23.278;2023-10-13T08:16:02;22.20;;;16.27;;
6131;SDS011;3097;42.692;23.278;2023-10-13T08:18:34;22.90;;;16.07;;
6131;SDS011;3097;42.692;23.278;2023-10-13T08:21:01;26.83;;;18.17;;
6131;SDS011;3097;42.692;23.278;2023-10-13T08:23:28;27.53;;;16.03;;
6131;SDS011;3097;42.692;23.278;2023-10-13T08:26:13;31.00;;;16.57;;
6131;SDS011;3097;42.692;23.278;2023-10-13T08:29:00;25.37;;;17.33;;
6131;SDS011;3097;42.692;23.278;2023-10-13T08:31:50;27.37;;;17.03;;
6131;SDS011;3097;42.692;23.278;2023-10-13T08:34:35;27.23;;;17.17;;
6131;SDS011;3097;42.692;23.278;2023-10-13T08:37:25;19.70;;;16.13;;
6131;SDS011;3097;42.692;23.278;2023-10-13T08:39:52;21.87;;;16.47;;
6131;SDS011;3097;42.692;23.278;2023-10-13T08:45:14;29.87;;;17.13;;
6131;SDS011;3097;42.692;23.278;2023-10-13T08:47:58;24.50;;;16.53;;
6131;SDS011;3097;42.692;23.278;2023-10-13T08:55:56;35.83;;;16.50;;
6131;SDS011;3097;42.692;23.278;2023-10-13T08:58:47;30.07;;;14.63;;
6131;SDS011;3097;42.692;23.278;2023-10-13T09:01:19;28.60;;;17.87;;
6131;SDS011;3097;42.692;23.278;2023-10-13T09:07:03;28.93;;;15.70;;
6131;SDS011;3097;42.692;23.278;2023-10-13T09:09:32;33.20;;;16.97;;
6131;SDS011;3097;42.692;23.278;2023-10-13T09:12:17;24.73;;;14.97;;
6131;SDS011;3097;42.692;23.278;2023-10-13T09:15:08;29.67;;;15.20;;
6131;SDS011;3097;42.692;23.278;2023-10-13T09:17:40;27.13;;;15.43;;
6131;SDS011;3097;42.692;23.278;2023-10-13T09:20:12;21.90;;;14.67;;
6131;SDS011;3097;42.692;23.278;2023-10-13T09:22:56;24.63;;;15.13;;
6131;SDS011;3097;42.692;23.278;2023-10-13T09:25:32;35.67;;;15.23;;
6131;SDS011;3097;42.692;23.278;2023-10-13T09:28:00;31.77;;;15.97;;
6131;SDS011;3097;42.692;23.278;2023-10-13T09:30:27;23.00;;;13.63;;
6131;SDS011;3097;42.692;23.278;2023-10-13T09:33:01;31.90;;;14.47;;
6131;SDS011;3097;42.692;23.278;2023-10-13T09:35:30;20.10;;;13.27;;
6131;SDS011;3097;42.692;23.278;2023-10-13T09:37:59;22.97;;;14.00;;
6131;SDS011;3097;42.692;23.278;2023-10-13T09:40:29;23.33;;;11.47;;
6131;SDS011;3097;42.692;23.278;2023-10-13T09:42:58;22.27;;;11.27;;
6131;SDS011;3097;42.692;23.278;2023-10-13T09:45:33;18.50;;;11.13;;
6131;SDS011;3097;42.692;23.278;2023-10-13T09:48:12;18.43;;;12.00;;
6131;SDS011;3097;42.692;23.278;2023-10-13T09:50:47;21.63;;;11.30;;
6131;SDS011;3097;42.692;23.278;2023-10-13T09:53:14;23.10;;;10.63;;
6131;SDS011;3097;42.692;23.278;2023-10-13T09:58:37;11.73;;;9.20;;
6131;SDS011;3097;42.692;23.278;2023-10-13T10:01:12;15.50;;;8.17;;
6131;SDS011;3097;42.692;23.278;2023-10-13T10:03:49;11.80;;;8.10;;
6131;SDS011;3097;42.692;23.278;2023-10-13T10:06:33;11.30;;;9.30;;
6131;SDS011;3097;42.692;23.278;2023-10-13T10:09:05;13.83;;;9.43;;
6131;SDS011;3097;42.692;23.278;2023-10-13T10:17:23;12.93;;;8.87;;
6131;SDS011;3097;42.692;23.278;2023-10-13T10:19:54;12.03;;;8.67;;
6131;SDS011;3097;42.692;23.278;2023-10-13T10:22:28;16.73;;;8.90;;
6131;SDS011;3097;42.692;23.278;2023-10-13T10:25:02;7.77;;;6.97;;
6131;SDS011;3097;42.692;23.278;2023-10-13T10:27:31;8.87;;;7.80;;
6131;SDS011;3097;42.692;23.278;2023-10-13T10:29:59;16.73;;;8.00;;
6131;SDS011;3097;42.692;23.278;2023-10-13T10:32:35;12.00;;;7.90;;
6131;SDS011;3097;42.692;23.278;2023-10-13T10:35:04;11.67;;;7.23;;
6131;SDS011;3097;42.692;23.278;2023-10-13T10:37:34;8.87;;;6.83;;
6131;SDS011;3097;42.692;23.278;2023-10-13T10:40:06;7.90;;;7.10;;
6131;SDS011;3097;42.692;23.278;2023-10-13T10:42:49;9.57;;;7.03;;
6131;SDS011;3097;42.692;23.278;2023-10-13T10:45:16;15.97;;;7.20;;
6131;SDS011;3097;42.692;23.278;2023-10-13T10:47:47;8.90;;;6.00;;
6131;SDS011;3097;42.692;23.278;2023-10-13T10:50:13;7.93;;;6.30;;
6131;SDS011;3097;42.692;23.278;2023-10-13T10:52:52;9.97;;;5.80;;
6131;SDS011;3097;42.692;23.278;2023-10-13T10:55:22;6.50;;;5.47;;
6131;SDS011;3097;42.692;23.278;2023-10-13T10:57:59;6.43;;;5.60;;
6131;SDS011;3097;42.692;23.278;2023-10-13T11:00:26;7.93;;;6.47;;
6131;SDS011;3097;42.692;23.278;2023-10-13T11:03:03;10.43;;;6.17;;
6131;SDS011;3097;42.692;23.278;2023-10-13T11:05:41;11.03;;;6.23;;
6131;SDS011;3097;42.692;23.278;2023-10-13T11:08:11;41.67;;;8.57;;
6131;SDS011;3097;42.692;23.278;2023-10-13T11:10:50;8.87;;;6.40;;
6131;SDS011;3097;42.692;23.278;2023-10-13T11:13:15;6.70;;;6.03;;
6131;SDS011;3097;42.692;23.278;2023-10-13T11:15:47;6.50;;;5.90;;
6131;SDS011;3097;42.692;23.278;2023-10-13T11:18:13;14.67;;;6.50;;
6131;SDS011;3097;42.692;23.278;2023-10-13T11:20:46;11.27;;;6.03;;
6131;SDS011;3097;42.692;23.278;2023-10-13T11:23:15;10.73;;;5.73;;
6131;SDS011;3097;42.692;23.278;2023-10-13T11:25:41;7.57;;;6.03;;
6131;SDS011;3097;42.692;23.278;2023-10-13T11:28:13;7.53;;;6.20;;
6131;SDS011;3097;42.692;23.278;2023-10-13T11:30:48;10.67;;;5.70;;
6131;SDS011;3097;42.692;23.278;2023-10-13T11:33:17;8.27;;;5.23;;
6131;SDS011;3097;42.692;23.278;2023-10-13T11:35:51;6.87;;;5.23;;
6131;SDS011;3097;42.692;23.278;2023-10-13T11:38:28;6.97;;;4.90;;
6131;SDS011;3097;42.692;23.278;2023-10-13T11:41:06;9.10;;;4.77;;
6131;SDS011;3097;42.692;23.278;2023-10-13T11:46:07;6.20;;;4.13;;
6131;SDS011;3097;42.692;23.278;2023-10-13T11:48:44;7.97;;;5.00;;
6131;SDS011;3097;42.692;23.278;2023-10-13T11:51:12;9.63;;;4.47;;
6131;SDS011;3097;42.692;23.278;2023-10-13T11:53:42;6.43;;;4.50;;
6131;SDS011;3097;42.692;23.278;2023-10-13T11:56:09;5.90;;;4.47;;
6131;SDS011;3097;42.692;23.278;2023-10-13T11:58:35;11.23;;;4.30;;
6131;SDS011;3097;42.692;23.278;2023-10-13T12:01:02;4.07;;;3.50;;
6131;SDS011;3097;42.692;23.278;2023-10-13T12:03:36;6.60;;;3.90;;
6131;SDS011;3097;42.692;23.278;2023-10-13T12:06:20;5.67;;;3.50;;
6131;SDS011;3097;42.692;23.278;2023-10-13T12:09:18;4.47;;;3.23;;
6131;SDS011;3097;42.692;23.278;2023-10-13T12:11:44;4.77;;;3.50;;
6131;SDS011;3097;42.692;23.278;2023-10-13T12:14:15;8.17;;;3.70;;
6131;SDS011;3097;42.692;23.278;2023-10-13T12:16:53;5.67;;;3.77;;
6131;SDS011;3097;42.692;23.278;2023-10-13T12:19:21;4.77;;;3.70;;
6131;SDS011;3097;42.692;23.278;2023-10-13T12:21:50;4.33;;;3.57;;
6131;SDS011;3097;42.692;23.278;2023-10-13T12:24:19;4.43;;;3.77;;
6131;SDS011;3097;42.692;23.278;2023-10-13T12:27:00;7.37;;;3.40;;
6131;SDS011;3097;42.692;23.278;2023-10-13T12:29:44;6.47;;;2.87;;
6131;SDS011;3097;42.692;23.278;2023-10-13T12:32:14;6.07;;;4.00;;
6131;SDS011;3097;42.692;23.278;2023-10-13T12:34:40;4.17;;;3.70;;
6131;SDS011;3097;42.692;23.278;2023-10-13T12:37:25;5.70;;;3.13;;
6131;SDS011;3097;42.692;23.278;2023-10-13T12:40:16;3.33;;;2.80;;
6131;SDS011;3097;42.692;23.278;2023-10-13T12:43:01;4.20;;;3.10;;
6131;SDS011;3097;42.692;23.278;2023-10-13T12:45:46;3.90;;;2.90;;
6131;SDS011;3097;42.692;23.278;2023-10-13T12:48:32;4.47;;;3.07;;
6131;SDS011;3097;42.692;23.278;2023-10-13T12:51:16;7.13;;;3.63;;
6131;SDS011;3097;42.692;23.278;2023-10-13T12:53:46;5.30;;;3.23;;
6131;SDS011;3097;42.692;23.278;2023-10-13T12:56:13;2.97;;;2.67;;
6131;SDS011;3097;42.692;23.278;2023-10-13T12:58:38;3.40;;;3.10;;
6131;SDS011;3097;42.692;23.278;2023-10-13T13:01:04;3.57;;;2.80;;
6131;SDS011;3097;42.692;23.278;2023-10-13T13:03:31;6.63;;;3.07;;
6131;SDS011;3097;42.692;23.278;2023-10-13T13:05:57;3.47;;;3.17;;
6131;SDS011;3097;42.692;23.278;2023-10-13T13:08:23;8.23;;;3.23;;
6131;SDS011;3097;42.692;23.278;2023-10-13T13:10:49;5.67;;;2.90;;
6131;SDS011;3097;42.692;23.278;2023-10-13T13:13:16;6.13;;;2.93;;
6131;SDS011;3097;42.692;23.278;2023-10-13T13:15:49;4.63;;;3.30;;
6131;SDS011;3097;42.692;23.278;2023-10-13T13:18:15;3.53;;;3.10;;
6131;SDS011;3097;42.692;23.278;2023-10-13T13:20:41;4.00;;;3.13;;
6131;SDS011;3097;42.692;23.278;2023-10-13T13:23:18;5.40;;;3.40;;
6131;SDS011;3097;42.692;23.278;2023-10-13T13:25:46;6.33;;;3.33;;
6131;SDS011;3097;42.692;23.278;2023-10-13T13:28:12;5.27;;;3.50;;
6131;SDS011;3097;42.692;23.278;2023-10-13T13:30:39;6.43;;;3.30;;
6131;SDS011;3097;42.692;23.278;2023-10-13T13:33:06;3.37;;;3.03;;
6131;SDS011;3097;42.692;23.278;2023-10-13T13:35:40;3.37;;;3.10;;
6131;SDS011;3097;42.692;23.278;2023-10-13T13:38:09;3.93;;;3.23;;
6131;SDS011;3097;42.692;23.278;2023-10-13T13:40:38;4.60;;;2.97;;
6131;SDS011;3097;42.692;23.278;2023-10-13T13:43:04;5.60;;;3.33;;
6131;SDS011;3097;42.692;23.278;2023-10-13T13:45:31;6.23;;;3.80;;
6131;SDS011;3097;42.692;23.278;2023-10-13T13:47:59;5.47;;;3.50;;
6131;SDS011;3097;42.692;23.278;2023-10-13T13:50:25;5.47;;;3.90;;
6131;SDS011;3097;42.692;23.278;2023-10-13T13:52:57;6.57;;;3.70;;
6131;SDS011;3097;42.692;23.278;2023-10-13T13:55:23;3.83;;;3.20;;
6131;SDS011;3097;42.692;23.278;2023-10-13T13:57:49;9.50;;;3.83;;
6131;SDS011;3097;42.692;23.278;2023-10-13T14:00:18;4.73;;;3.30;;
6131;SDS011;3097;42.692;23.278;2023-10-13T14:03:06;4.17;;;3.40;;
6131;SDS011;3097;42.692;23.278;2023-10-13T14:05:52;6.47;;;3.53;;
6131;SDS011;3097;42.692;23.278;2023-10-13T14:08:17;11.63;;;4.00;;
6131;SDS011;3097;42.692;23.278;2023-10-13T14:10:42;7.93;;;3.63;;
6131;SDS011;3097;42.692;23.278;2023-10-13T14:13:27;6.43;;;4.17;;
6131;SDS011;3097;42.692;23.278;2023-10-13T14:16:12;9.03;;;4.07;;
6131;SDS011;3097;42.692;23.278;2023-10-13T14:18:47;4.03;;;3.67;;
6131;SDS011;3097;42.692;23.278;2023-10-13T14:21:13;6.67;;;4.20;;
6131;SDS011;3097;42.692;23.278;2023-10-13T14:23:45;4.47;;;4.07;;
6131;SDS011;3097;42.692;23.278;2023-10-13T14:26:13;5.10;;;4.30;;
6131;SDS011;3097;42.692;23.278;2023-10-13T14:28:39;8.63;;;4.03;;
6131;SDS011;3097;42.692;23.278;2023-10-13T14:31:17;4.70;;;3.67;;
6131;SDS011;3097;42.692;23.278;2023-10-13T14:33:45;6.43;;;4.20;;
6131;SDS011;3097;42.692;23.278;2023-10-13T14:36:11;6.67;;;4.27;;
6131;SDS011;3097;42.692;23.278;2023-10-13T14:38:37;5.53;;;4.43;;
6131;SDS011;3097;42.692;23.278;2023-10-13T14:41:02;4.53;;;4.13;;
6131;SDS011;3097;42.692;23.278;2023-10-13T14:43:28;9.87;;;4.73;;
6131;SDS011;3097;42.692;23.278;2023-10-13T14:45:53;5.77;;;4.30;;
6131;SDS011;3097;42.692;23.278;2023-10-13T14:48:19;7.70;;;4.70;;
6131;SDS011;3097;42.692;23.278;2023-10-13T14:50:44;9.83;;;4.60;;
6131;SDS011;3097;42.692;23.278;2023-10-13T14:53:10;9.53;;;5.20;;
6131;SDS011;3097;42.692;23.278;2023-10-13T14:55:36;7.13;;;4.80;;
6131;SDS011;3097;42.692;23.278;2023-10-13T14:58:05;7.53;;;6.13;;
6131;SDS011;3097;42.692;23.278;2023-10-13T15:00:33;7.90;;;4.50;;
6131;SDS011;3097;42.692;23.278;2023-10-13T15:02:59;10.30;;;5.07;;
6131;SDS011;3097;42.692;23.278;2023-10-13T15:05:31;8.37;;;4.37;;
6131;SDS011;3097;42.692;23.278;2023-10-13T15:08:00;5.23;;;4.60;;
6131;SDS011;3097;42.692;23.278;2023-10-13T15:10:28;7.77;;;5.53;;
6131;SDS011;3097;42.692;23.278;2023-10-13T15:12:54;13.33;;;8.43;;
6131;SDS011;3097;42.692;23.278;2023-10-13T15:15:19;10.00;;;5.80;;
6131;SDS011;3097;42.692;23.278;2023-10-13T15:17:45;8.60;;;4.43;;
6131;SDS011;3097;42.692;23.278;2023-10-13T15:20:11;12.30;;;5.97;;
6131;SDS011;3097;42.692;23.278;2023-10-13T15:22:43;11.63;;;5.83;;
6131;SDS011;3097;42.692;23.278;2023-10-13T15:25:09;15.73;;;6.93;;
6131;SDS011;3097;42.692;23.278;2023-10-13T15:27:57;15.43;;;7.50;;
6131;SDS011;3097;42.692;23.278;2023-10-13T15:30:27;12.67;;;5.23;;
6131;SDS011;3097;42.692;23.278;2023-10-13T15:33:09;17.70;;;6.20;;
6131;SDS011;3097;42.692;23.278;2023-10-13T15:35:40;11.03;;;5.23;;
6131;SDS011;3097;42.692;23.278;2023-10-13T15:38:08;27.47;;;5.80;;
6131;SDS011;3097;42.692;23.278;2023-10-13T15:40:40;21.23;;;6.27;;
6131;SDS011;3097;42.692;23.278;2023-10-13T15:43:09;24.30;;;8.40;;
6131;SDS011;3097;42.692;23.278;2023-10-13T15:45:38;30.80;;;11.83;;
6131;SDS011;3097;42.692;23.278;2023-10-13T15:48:11;32.03;;;12.43;;
6131;SDS011;3097;42.692;23.278;2023-10-13T15:50:37;25.10;;;9.83;;
6131;SDS011;3097;42.692;23.278;2023-10-13T15:53:07;47.87;;;12.00;;
6131;SDS011;3097;42.692;23.278;2023-10-13T15:55:36;34.80;;;11.63;;